Time;durP1;ratioP1;P1;durP2;ratioP2;P2;SDS_P1;SDS_P2;PMS_P1;PMS_P2;Temp;Humidity;BMP_temperature;BMP_pressure;BME280_temperature;BME280_humidity;BME280_pressure;Samples;Min_cycle;Max_cycle;Signal;HPM_P1;HPM_P2
2022/02/19 00:00:42;;;;;;;9.10;2.22;;;7.10;99.90;;;;;;5014222;28;20464;-77
2022/02/19 00:03:08;;;;;;;7.55;1.98;;;7.10;99.90;;;;;;5007092;28;20029;-78
2022/02/19 00:05:36;;;;;;;6.25;2.53;;;7.00;99.90;;;;;;5020008;28;20026;-78
2022/02/19 00:08:02;;;;;;;7.50;1.95;;;7.10;99.90;;;;;;4997151;28;20391;-78
2022/02/19 00:10:27;;;;;;;7.80;2.38;;;6.90;99.90;;;;;;5003369;28;20034;-77
2022/02/19 00:12:53;;;;;;;10.13;2.83;;;7.00;99.90;;;;;;5003194;28;20017;-77
2022/02/19 00:15:18;;;;;;;7.18;2.30;;;6.90;99.90;;;;;;5014041;28;20021;-76
2022/02/19 00:17:44;;;;;;;5.63;2.15;;;6.90;99.90;;;;;;5018894;28;20510;-76
2022/02/19 00:20:12;;;;;;;7.80;2.70;;;6.80;99.90;;;;;;4997076;28;20057;-77
2022/02/19 00:22:38;;;;;;;6.38;2.20;;;6.70;99.90;;;;;;5021624;28;20026;-77
2022/02/19 00:25:04;;;;;;;7.97;2.25;;;6.80;99.90;;;;;;4997902;28;20045;-76
2022/02/19 00:27:30;;;;;;;9.00;2.50;;;6.60;99.90;;;;;;5015677;28;20021;-77
2022/02/19 00:29:55;;;;;;;9.93;2.70;;;6.50;99.90;;;;;;5023549;28;20368;-77
2022/02/19 00:32:21;;;;;;;8.82;2.70;;;6.40;99.90;;;;;;4998782;28;20476;-78
2022/02/19 00:34:47;;;;;;;10.30;2.50;;;6.40;99.90;;;;;;5017537;28;20057;-77
2022/02/19 00:37:12;;;;;;;8.93;2.60;;;6.50;99.90;;;;;;5017065;28;20022;-77
2022/02/19 00:39:38;;;;;;;6.15;2.40;;;6.40;99.90;;;;;;5019136;28;20029;-78
2022/02/19 00:42:05;;;;;;;8.48;2.72;;;6.40;99.90;;;;;;5018882;28;20029;-78
2022/02/19 00:44:32;;;;;;;7.80;2.80;;;6.40;99.90;;;;;;5019662;28;20026;-77
2022/02/19 00:46:57;;;;;;;9.50;2.40;;;6.30;99.90;;;;;;5019091;28;20483;-77
2022/02/19 00:49:23;;;;;;;9.38;2.88;;;6.20;99.90;;;;;;5013094;28;20028;-77
2022/02/19 00:51:49;;;;;;;8.65;2.67;;;6.30;99.90;;;;;;5019450;28;20101;-78
2022/02/19 00:54:14;;;;;;;8.40;2.50;;;6.30;99.90;;;;;;4995739;28;20124;-76
2022/02/19 00:56:40;;;;;;;10.23;2.83;;;6.30;99.90;;;;;;5014145;28;20029;-77
2022/02/19 00:59:05;;;;;;;7.40;2.65;;;6.30;99.90;;;;;;5020102;28;20060;-76
2022/02/19 01:01:31;;;;;;;9.10;2.60;;;6.30;99.90;;;;;;4995413;28;20030;-78
2022/02/19 01:03:57;;;;;;;7.28;2.40;;;6.20;99.90;;;;;;5020026;28;20561;-78
2022/02/19 01:06:22;;;;;;;7.50;2.72;;;6.20;99.90;;;;;;4997557;28;20108;-78
2022/02/19 01:08:51;;;;;;;5.95;2.38;;;6.40;99.90;;;;;;5006753;28;20025;-78
2022/02/19 01:11:19;;;;;;;9.60;2.92;;;6.00;99.90;;;;;;4994371;28;20022;-78
2022/02/19 01:13:46;;;;;;;10.07;2.83;;;6.30;99.90;;;;;;5018318;28;20026;-77
2022/02/19 01:16:11;;;;;;;11.80;2.83;;;6.20;99.90;;;;;;5018810;28;20033;-76
2022/02/19 01:18:37;;;;;;;9.35;2.47;;;6.30;99.90;;;;;;4999270;28;20399;-76
2022/02/19 01:21:02;;;;;;;9.38;2.88;;;6.10;99.90;;;;;;5003029;28;20091;-76
2022/02/19 01:23:29;;;;;;;14.02;2.80;;;6.10;99.90;;;;;;5008262;28;20387;-78
2022/02/19 01:25:54;;;;;;;7.90;2.38;;;6.00;99.90;;;;;;4995311;28;20029;-78
2022/02/19 01:28:20;;;;;;;10.38;3.08;;;6.10;99.90;;;;;;5012985;28;20022;-78
2022/02/19 01:30:46;;;;;;;7.45;2.92;;;6.00;99.90;;;;;;5012731;28;20032;-77
2022/02/19 01:33:11;;;;;;;8.32;2.78;;;5.90;99.90;;;;;;4994736;28;20088;-77
2022/02/19 01:35:37;;;;;;;9.20;3.05;;;5.90;99.90;;;;;;4994998;28;20026;-77
2022/02/19 01:38:03;;;;;;;8.85;2.90;;;6.00;99.90;;;;;;4995007;28;20025;-77
2022/02/19 01:40:29;;;;;;;11.73;2.80;;;6.10;99.90;;;;;;4994987;28;20061;-77
2022/02/19 01:42:55;;;;;;;10.93;3.35;;;6.00;99.90;;;;;;5014840;28;20113;-78
2022/02/19 01:45:20;;;;;;;8.25;2.70;;;6.00;99.90;;;;;;4995192;28;20372;-77
2022/02/19 01:47:46;;;;;;;11.40;2.80;;;6.00;99.90;;;;;;4995024;28;20022;-77
2022/02/19 01:50:12;;;;;;;12.25;2.92;;;6.00;99.90;;;;;;5013136;28;20040;-77
2022/02/19 01:52:42;;;;;;;11.73;3.67;;;6.00;99.90;;;;;;5014380;28;20499;-77
2022/02/19 01:55:07;;;;;;;9.55;2.88;;;6.00;99.90;;;;;;5014746;28;20030;-77
2022/02/19 01:57:34;;;;;;;8.18;2.85;;;6.00;99.90;;;;;;4995018;28;20569;-77
2022/02/19 01:59:59;;;;;;;10.45;3.97;;;5.90;99.90;;;;;;4994886;28;20033;-77
2022/02/19 02:02:25;;;;;;;7.43;2.83;;;6.00;99.90;;;;;;4994787;28;20025;-78
2022/02/19 02:04:51;;;;;;;12.50;2.55;;;5.90;99.90;;;;;;4994762;28;20049;-77
2022/02/19 02:07:16;;;;;;;11.23;2.95;;;6.10;99.90;;;;;;4997076;28;20044;-77
2022/02/19 02:09:42;;;;;;;8.93;2.78;;;5.90;99.90;;;;;;5001243;28;20178;-77
2022/02/19 02:12:09;;;;;;;7.75;2.55;;;5.90;99.90;;;;;;5007678;28;20092;-77
2022/02/19 02:14:39;;;;;;;7.28;2.40;;;5.80;99.90;;;;;;4994395;28;20030;-77
2022/02/19 02:17:05;;;;;;;9.75;2.78;;;5.90;99.90;;;;;;5010445;28;20025;-75
2022/02/19 02:19:31;;;;;;;8.02;2.80;;;5.80;99.90;;;;;;4989011;28;20500;-76
2022/02/19 02:21:56;;;;;;;10.63;2.60;;;5.90;99.90;;;;;;5014887;28;20106;-76
2022/02/19 02:24:22;;;;;;;7.00;2.63;;;5.90;99.90;;;;;;4994220;28;20018;-78
2022/02/19 02:26:49;;;;;;;10.77;2.55;;;5.90;99.90;;;;;;4994308;28;20034;-77
2022/02/19 02:29:14;;;;;;;9.77;2.70;;;5.70;99.90;;;;;;4994134;28;20484;-77
2022/02/19 02:31:40;;;;;;;11.65;2.78;;;5.80;99.90;;;;;;5011668;28;20032;-78
2022/02/19 02:34:05;;;;;;;8.10;2.55;;;5.80;99.90;;;;;;5011781;28;20109;-77
2022/02/19 02:36:31;;;;;;;11.15;2.67;;;5.80;99.90;;;;;;5011639;28;20034;-77
2022/02/19 02:38:58;;;;;;;8.63;2.92;;;5.80;99.90;;;;;;5011658;28;20037;-77
2022/02/19 02:41:25;;;;;;;9.65;2.65;;;5.90;99.90;;;;;;4993951;28;20023;-77
2022/02/19 02:43:50;;;;;;;8.88;2.50;;;5.80;99.90;;;;;;5011692;28;20079;-77
2022/02/19 02:46:16;;;;;;;10.40;2.92;;;5.80;99.90;;;;;;5015222;28;20022;-76
2022/02/19 02:48:41;;;;;;;9.02;2.45;;;5.90;99.90;;;;;;5015427;28;20474;-76
2022/02/19 02:51:07;;;;;;;10.88;3.22;;;5.80;99.90;;;;;;5020981;28;20018;-77
2022/02/19 02:53:33;;;;;;;7.95;2.90;;;5.80;99.90;;;;;;5018605;28;20124;-78
2022/02/19 02:55:58;;;;;;;9.85;2.72;;;5.90;99.90;;;;;;5015557;28;20075;-76
2022/02/19 02:58:24;;;;;;;7.03;2.60;;;5.80;99.90;;;;;;5015959;28;20030;-76
2022/02/19 03:00:49;;;;;;;8.60;2.47;;;5.80;99.90;;;;;;5015395;28;20048;-76
2022/02/19 03:03:15;;;;;;;8.88;3.00;;;5.80;99.90;;;;;;5023560;28;20025;-77
2022/02/19 03:05:41;;;;;;;11.68;3.20;;;5.80;99.90;;;;;;4997541;28;20034;-77
2022/02/19 03:08:07;;;;;;;10.95;2.70;;;5.70;99.90;;;;;;5017961;28;20014;-78
2022/02/19 03:10:33;;;;;;;11.65;3.05;;;5.80;99.90;;;;;;4997468;28;20538;-78
2022/02/19 03:12:58;;;;;;;9.30;2.58;;;5.90;99.90;;;;;;5015261;28;20077;-78
2022/02/19 03:15:24;;;;;;;8.85;2.83;;;5.70;99.90;;;;;;5015269;28;20030;-77
2022/02/19 03:17:50;;;;;;;9.05;2.88;;;5.60;99.90;;;;;;5015185;28;20041;-77
2022/02/19 03:20:20;;;;;;;10.27;2.58;;;5.70;99.90;;;;;;5014864;28;20048;-77
2022/02/19 03:22:46;;;;;;;8.05;2.80;;;5.60;99.90;;;;;;5002081;28;20037;-77
2022/02/19 03:25:13;;;;;;;8.38;2.90;;;5.50;99.90;;;;;;5008263;28;20073;-78
2022/02/19 03:27:39;;;;;;;7.22;2.45;;;5.60;99.90;;;;;;4990843;28;20109;-77
2022/02/19 03:30:07;;;;;;;9.00;2.83;;;5.60;99.90;;;;;;4984849;28;20118;-76
2022/02/19 03:32:33;;;;;;;12.48;2.92;;;5.50;99.90;;;;;;4984312;28;20113;-76
2022/02/19 03:34:58;;;;;;;6.93;2.30;;;5.60;99.90;;;;;;4990715;28;20058;-77
2022/02/19 03:37:24;;;;;;;10.43;3.25;;;5.60;99.90;;;;;;4992674;28;20392;-77
2022/02/19 03:39:50;;;;;;;13.93;3.35;;;5.50;99.90;;;;;;5027994;28;20041;-75
2022/02/19 03:42:15;;;;;;;8.93;2.72;;;5.50;99.90;;;;;;5027440;28;20033;-76
2022/02/19 03:44:41;;;;;;;6.60;2.47;;;5.50;99.90;;;;;;5008543;28;20043;-76
2022/02/19 03:47:06;;;;;;;10.32;2.78;;;5.50;99.90;;;;;;5021233;28;20048;-75
2022/02/19 03:49:32;;;;;;;7.53;2.33;;;5.50;99.90;;;;;;4990402;28;20028;-75
2022/02/19 03:51:58;;;;;;;8.00;2.55;;;5.50;99.90;;;;;;5021162;28;20048;-76
2022/02/19 03:54:23;;;;;;;6.97;2.30;;;5.40;99.90;;;;;;5003646;28;20502;-76
2022/02/19 03:56:49;;;;;;;11.27;3.00;;;5.30;99.90;;;;;;5001757;28;20555;-77
2022/02/19 03:59:14;;;;;;;8.40;2.70;;;5.20;99.90;;;;;;5003687;28;20030;-76
2022/02/19 04:01:41;;;;;;;8.48;2.63;;;5.10;99.90;;;;;;4989478;28;20030;-76
2022/02/19 04:04:07;;;;;;;10.48;2.80;;;5.20;99.90;;;;;;5001053;28;20391;-75
2022/02/19 04:06:33;;;;;;;10.55;2.78;;;5.10;99.90;;;;;;5014374;28;20072;-75
2022/02/19 04:08:59;;;;;;;9.30;2.78;;;5.10;99.90;;;;;;4983871;28;20022;-76
2022/02/19 04:11:24;;;;;;;10.65;2.75;;;5.10;99.90;;;;;;5001873;28;20030;-76
2022/02/19 04:13:50;;;;;;;8.05;2.40;;;5.10;99.90;;;;;;4990401;28;20030;-76
2022/02/19 04:16:15;;;;;;;9.63;2.70;;;4.90;99.90;;;;;;4989452;28;20033;-76
2022/02/19 04:18:41;;;;;;;8.20;2.50;;;5.00;99.90;;;;;;5013952;28;20034;-77
2022/02/19 04:21:07;;;;;;;7.05;2.75;;;5.00;99.90;;;;;;4996717;28;20083;-77
2022/02/19 04:23:33;;;;;;;7.47;2.20;;;4.90;99.90;;;;;;4983821;28;20071;-77
2022/02/19 04:25:59;;;;;;;8.70;2.47;;;5.00;99.90;;;;;;4983853;28;20117;-76
2022/02/19 04:28:26;;;;;;;6.38;2.38;;;5.20;99.90;;;;;;5007625;28;20050;-77
2022/02/19 04:30:53;;;;;;;7.20;2.60;;;5.10;99.90;;;;;;5007475;28;20161;-77
2022/02/19 04:33:19;;;;;;;6.30;2.40;;;5.00;99.90;;;;;;5001277;28;20022;-77
2022/02/19 04:35:47;;;;;;;6.45;2.45;;;4.80;99.90;;;;;;5001683;28;20022;-78
2022/02/19 04:38:14;;;;;;;6.32;2.22;;;4.80;99.90;;;;;;4994120;28;20026;-77
2022/02/19 04:40:40;;;;;;;6.85;2.20;;;5.00;99.90;;;;;;5007087;28;20434;-77
2022/02/19 04:43:05;;;;;;;7.05;2.20;;;5.00;99.90;;;;;;4983789;28;20033;-77
2022/02/19 04:45:31;;;;;;;6.72;1.90;;;4.90;99.90;;;;;;5026732;28;20061;-76
2022/02/19 04:47:57;;;;;;;7.40;2.45;;;4.90;99.90;;;;;;5025454;28;20080;-76
2022/02/19 04:50:23;;;;;;;8.40;2.50;;;5.00;99.90;;;;;;4995629;28;20487;-76
2022/02/19 04:52:48;;;;;;;5.45;2.50;;;5.00;99.90;;;;;;5008897;28;20053;-76
2022/02/19 04:55:14;;;;;;;4.97;2.03;;;4.90;99.90;;;;;;5018468;28;20491;-76
2022/02/19 04:57:43;;;;;;;6.40;2.17;;;5.00;99.90;;;;;;4988927;28;20052;-75
2022/02/19 05:00:14;;;;;;;8.82;2.40;;;5.00;99.90;;;;;;4994453;28;20019;-77
2022/02/19 05:02:40;;;;;;;6.07;2.38;;;5.00;99.90;;;;;;4987876;28;20461;-76
2022/02/19 05:05:06;;;;;;;9.93;2.53;;;5.00;99.90;;;;;;5006551;28;20062;-76
2022/02/19 05:07:32;;;;;;;9.15;2.28;;;5.10;99.90;;;;;;4983362;28;20105;-76
2022/02/19 05:09:58;;;;;;;9.95;2.33;;;5.10;99.90;;;;;;4982348;28;20118;-75
2022/02/19 05:12:23;;;;;;;6.75;2.28;;;5.20;99.90;;;;;;5005114;28;20469;-76
2022/02/19 05:14:49;;;;;;;8.02;2.15;;;5.10;99.90;;;;;;5006678;28;20029;-77
2022/02/19 05:17:15;;;;;;;8.27;2.50;;;5.10;99.90;;;;;;5000944;28;20068;-78
2022/02/19 05:19:41;;;;;;;7.32;2.13;;;5.10;99.90;;;;;;5006352;28;20483;-77
2022/02/19 05:22:06;;;;;;;5.97;2.40;;;5.10;99.90;;;;;;5004588;28;20037;-77
2022/02/19 05:24:32;;;;;;;6.63;2.70;;;5.10;99.90;;;;;;5006346;28;20030;-76
2022/02/19 05:26:57;;;;;;;10.40;2.58;;;5.10;99.90;;;;;;5001388;28;20025;-76
2022/02/19 05:29:23;;;;;;;9.02;2.65;;;5.10;99.90;;;;;;5025760;28;20022;-76
2022/02/19 05:31:48;;;;;;;8.68;2.45;;;5.00;99.90;;;;;;5004321;28;20022;-77
2022/02/19 05:34:14;;;;;;;9.43;2.90;;;4.90;99.90;;;;;;5008057;28;20034;-76
2022/02/19 05:36:39;;;;;;;7.18;2.35;;;4.90;99.90;;;;;;5004479;28;20033;-76
2022/02/19 05:39:05;;;;;;;12.10;2.90;;;5.00;99.90;;;;;;5006232;28;20080;-76
2022/02/19 05:41:31;;;;;;;7.57;2.60;;;5.00;99.90;;;;;;4975449;28;20438;-77
2022/02/19 05:43:56;;;;;;;9.18;2.80;;;5.00;99.90;;;;;;5006330;28;20037;-76
2022/02/19 05:46:22;;;;;;;11.45;2.80;;;5.00;99.90;;;;;;5000937;28;20021;-75
2022/02/19 05:48:47;;;;;;;5.13;2.22;;;5.00;99.90;;;;;;5025492;28;20029;-76
2022/02/19 05:51:13;;;;;;;8.73;2.72;;;4.90;99.90;;;;;;4995210;28;20072;-77
2022/02/19 05:53:39;;;;;;;8.77;2.35;;;4.90;99.90;;;;;;4980430;28;20058;-75
2022/02/19 05:56:05;;;;;;;9.43;2.50;;;4.80;99.90;;;;;;5000919;28;20030;-76
2022/02/19 05:58:30;;;;;;;8.02;2.30;;;4.70;99.90;;;;;;5016118;28;20022;-76
2022/02/19 06:00:58;;;;;;;9.82;2.55;;;4.50;99.90;;;;;;5030563;28;20033;-76
2022/02/19 06:03:23;;;;;;;7.57;2.65;;;4.50;99.90;;;;;;5018810;28;20071;-77
2022/02/19 06:05:49;;;;;;;8.90;2.70;;;4.40;99.90;;;;;;5006199;28;20030;-76
2022/02/19 06:08:14;;;;;;;9.23;3.03;;;4.50;99.90;;;;;;5016005;28;20124;-76
2022/02/19 06:10:40;;;;;;;10.10;3.28;;;4.50;99.90;;;;;;4986832;28;20054;-77
2022/02/19 06:13:06;;;;;;;8.65;2.70;;;4.50;99.90;;;;;;5005551;28;20050;-77
2022/02/19 06:15:32;;;;;;;7.35;2.85;;;4.70;99.90;;;;;;4982673;28;20042;-77
2022/02/19 06:17:57;;;;;;;11.27;2.92;;;4.80;99.90;;;;;;4982122;28;20045;-77
2022/02/19 06:20:23;;;;;;;9.48;2.75;;;4.80;99.90;;;;;;5011711;28;20042;-77
2022/02/19 06:22:48;;;;;;;8.85;2.45;;;4.80;99.90;;;;;;4999492;28;20034;-73
2022/02/19 06:25:14;;;;;;;6.82;2.20;;;4.20;99.90;;;;;;5025037;28;20026;-77
2022/02/19 06:27:44;;;;;;;5.78;2.20;;;3.80;99.90;;;;;;5024727;28;20065;-76
2022/02/19 06:30:10;;;;;;;7.10;2.10;;;3.50;99.90;;;;;;4999770;28;20026;-76
2022/02/19 06:32:37;;;;;;;5.85;2.05;;;3.30;99.90;;;;;;4998667;28;20030;-77
2022/02/19 06:35:03;;;;;;;7.30;2.30;;;3.40;99.90;;;;;;4986945;28;20032;-77
2022/02/19 06:37:28;;;;;;;9.65;2.85;;;3.30;99.90;;;;;;5005375;28;20021;-77
2022/02/19 06:39:54;;;;;;;8.45;2.65;;;3.20;99.90;;;;;;4999657;28;20030;-77
2022/02/19 06:42:19;;;;;;;8.65;3.00;;;3.20;99.90;;;;;;4998540;28;20026;-77
2022/02/19 06:44:45;;;;;;;9.38;2.70;;;3.20;99.90;;;;;;5006486;28;20034;-77
2022/02/19 06:47:10;;;;;;;8.75;2.70;;;3.20;99.90;;;;;;4988769;28;20105;-77
2022/02/19 06:49:36;;;;;;;28.63;25.25;;;3.40;99.90;;;;;;4999291;28;20022;-76
2022/02/19 06:52:01;;;;;;;8.50;3.10;;;3.30;99.90;;;;;;4999261;28;20057;-78
2022/02/19 06:54:27;;;;;;;23.80;15.30;;;3.20;99.90;;;;;;5001253;28;20072;-77
2022/02/19 06:56:55;;;;;;;14.45;7.82;;;3.40;99.90;;;;;;4999761;28;20030;-77
2022/02/19 06:59:20;;;;;;;10.65;5.93;;;3.30;99.90;;;;;;4999588;28;20022;-77
2022/02/19 07:01:46;;;;;;;11.00;4.55;;;3.50;99.90;;;;;;4998416;28;20089;-78
2022/02/19 07:04:15;;;;;;;9.98;2.75;;;3.50;99.90;;;;;;4986941;28;20037;-77
2022/02/19 07:06:40;;;;;;;10.05;3.80;;;3.60;99.90;;;;;;4992036;28;20054;-79
2022/02/19 07:09:06;;;;;;;8.60;3.65;;;3.70;99.90;;;;;;4986280;28;20054;-78
2022/02/19 07:11:32;;;;;;;10.68;3.13;;;3.70;99.90;;;;;;4988070;28;20026;-78
2022/02/19 07:13:57;;;;;;;10.18;3.00;;;3.80;99.90;;;;;;5004635;28;20038;-75
2022/02/19 07:16:23;;;;;;;8.73;2.58;;;3.80;99.90;;;;;;4988320;28;20022;-76
2022/02/19 07:18:48;;;;;;;9.88;2.95;;;4.00;99.90;;;;;;5011477;28;20053;-75
2022/02/19 07:21:14;;;;;;;10.00;2.83;;;4.00;99.90;;;;;;5027814;28;20030;-75
2022/02/19 07:23:39;;;;;;;8.20;2.42;;;4.10;99.90;;;;;;5025057;28;20535;-76
2022/02/19 07:26:05;;;;;;;7.80;2.50;;;4.20;99.90;;;;;;5017663;28;20029;-75
2022/02/19 07:28:31;;;;;;;9.10;2.88;;;4.00;99.90;;;;;;5002756;28;20040;-75
2022/02/19 07:30:56;;;;;;;10.02;2.83;;;4.10;99.90;;;;;;5003731;28;20093;-75
2022/02/19 07:33:22;;;;;;;8.93;2.42;;;4.00;99.90;;;;;;5004586;28;20041;-75
2022/02/19 07:35:48;;;;;;;8.48;2.72;;;4.20;99.90;;;;;;5020192;28;20030;-76
2022/02/19 07:38:13;;;;;;;8.65;2.28;;;4.20;99.90;;;;;;5018789;28;20426;-75
2022/02/19 07:40:39;;;;;;;9.32;2.97;;;4.10;99.90;;;;;;5022772;28;20030;-75
2022/02/19 07:43:04;;;;;;;7.97;2.58;;;4.20;99.90;;;;;;5023467;28;20035;-75
2022/02/19 07:45:31;;;;;;;11.20;2.58;;;4.20;99.90;;;;;;5025952;28;20033;-75
2022/02/19 07:47:56;;;;;;;9.85;2.60;;;4.20;99.90;;;;;;5026193;28;20025;-75
2022/02/19 07:58:34;;;;;;;10.55;2.42;;;4.20;99.90;;;;;;5023275;28;20044;-75
2022/02/19 08:01:02;;;;;;;12.23;2.80;;;4.50;99.90;;;;;;5004663;28;20112;-76
2022/02/19 08:03:30;;;;;;;8.77;2.60;;;4.60;99.90;;;;;;5021463;28;20495;-76
2022/02/19 08:05:56;;;;;;;10.00;2.50;;;4.50;99.90;;;;;;5024630;28;20442;-77
2022/02/19 08:08:22;;;;;;;9.48;2.92;;;4.60;99.90;;;;;;5022400;28;20018;-76
2022/02/19 08:10:48;;;;;;;7.85;2.20;;;4.70;99.90;;;;;;5017932;28;20059;-76
2022/02/19 08:13:15;;;;;;;8.35;2.28;;;4.60;99.90;;;;;;5001981;28;20022;-77
2022/02/19 08:15:42;;;;;;;11.38;2.50;;;4.60;99.90;;;;;;5019008;28;20076;-76
2022/02/19 08:18:09;;;;;;;9.77;2.63;;;4.60;99.90;;;;;;5015472;28;20037;-77
2022/02/19 08:20:37;;;;;;;5.93;2.47;;;4.60;99.90;;;;;;5000602;28;20079;-78
2022/02/19 08:23:04;;;;;;;8.95;2.85;;;4.70;99.90;;;;;;4999261;28;20029;-77
2022/02/19 08:25:30;;;;;;;10.45;2.65;;;4.70;99.90;;;;;;5019400;28;20022;-77
2022/02/19 08:27:56;;;;;;;9.68;2.47;;;4.70;99.90;;;;;;5023218;28;20029;-76
2022/02/19 08:30:22;;;;;;;8.15;2.85;;;4.70;99.90;;;;;;5018283;28;20026;-76
2022/02/19 08:32:48;;;;;;;7.10;2.28;;;4.70;99.90;;;;;;5020602;28;20022;-76
2022/02/19 08:35:14;;;;;;;7.00;2.60;;;4.70;99.90;;;;;;5001801;28;20395;-75
2022/02/19 08:37:40;;;;;;;9.90;2.70;;;4.70;99.90;;;;;;5013134;28;20022;-75
2022/02/19 08:40:11;;;;;;;9.93;2.53;;;4.70;99.90;;;;;;5017198;28;20041;-75
2022/02/19 08:42:37;;;;;;;7.78;2.63;;;4.80;99.90;;;;;;5020188;28;20037;-75
2022/02/19 08:45:05;;;;;;;9.38;2.67;;;4.80;99.90;;;;;;5019323;28;20112;-75
2022/02/19 08:47:32;;;;;;;6.75;2.42;;;4.80;99.90;;;;;;5019128;28;20018;-75
2022/02/19 08:49:57;;;;;;;9.75;3.05;;;4.80;99.90;;;;;;5000120;28;20373;-76
2022/02/19 08:52:23;;;;;;;6.97;2.63;;;4.90;99.90;;;;;;5018881;28;20093;-75
2022/02/19 08:54:49;;;;;;;10.25;2.90;;;4.90;99.90;;;;;;5019022;28;20928;-75
2022/02/19 08:57:14;;;;;;;7.85;2.60;;;5.10;99.90;;;;;;5020790;28;20064;-75
2022/02/19 08:59:40;;;;;;;10.55;3.05;;;5.00;99.90;;;;;;5021432;28;20056;-75
2022/02/19 09:02:06;;;;;;;10.50;2.95;;;5.10;99.90;;;;;;5021302;28;20140;-75
2022/02/19 09:04:32;;;;;;;9.73;2.75;;;5.20;99.90;;;;;;5001875;28;20025;-75
2022/02/19 09:06:57;;;;;;;8.20;2.90;;;5.20;99.90;;;;;;5023293;28;20017;-75
2022/02/19 09:09:23;;;;;;;8.13;2.15;;;5.10;99.90;;;;;;5020506;28;20067;-75
2022/02/19 09:11:49;;;;;;;7.47;2.55;;;5.00;99.90;;;;;;5000002;28;20502;-75
2022/02/19 09:14:14;;;;;;;9.70;2.53;;;5.00;99.90;;;;;;5005508;28;20156;-76
2022/02/19 09:16:40;;;;;;;7.35;2.80;;;5.10;99.90;;;;;;5017643;28;20041;-75
2022/02/19 09:19:06;;;;;;;8.95;2.55;;;5.20;99.90;;;;;;5019903;28;20048;-75
2022/02/19 09:21:34;;;;;;;8.23;2.33;;;5.10;99.90;;;;;;5003339;28;20054;-75
2022/02/19 09:24:00;;;;;;;8.73;2.63;;;5.20;99.90;;;;;;5003953;28;20554;-76
2022/02/19 09:26:26;;;;;;;7.68;2.20;;;5.20;99.90;;;;;;5017588;28;20455;-76
2022/02/19 09:28:52;;;;;;;9.13;2.53;;;5.20;99.90;;;;;;4995652;28;20022;-75
2022/02/19 09:31:21;;;;;;;7.32;2.42;;;5.10;99.90;;;;;;5004804;28;20056;-75
2022/02/19 09:33:48;;;;;;;9.23;2.42;;;5.30;99.90;;;;;;5023619;28;20021;-75
2022/02/19 09:36:14;;;;;;;8.20;2.42;;;5.50;99.90;;;;;;5020237;28;20052;-75
2022/02/19 09:38:40;;;;;;;6.97;2.33;;;5.70;99.90;;;;;;5002936;28;20054;-75
2022/02/19 09:41:09;;;;;;;7.20;2.10;;;5.70;99.90;;;;;;5023133;28;20044;-75
2022/02/19 09:43:35;;;;;;;9.10;1.90;;;5.60;99.90;;;;;;5006104;28;20021;-77
2022/02/19 09:46:03;;;;;;;8.55;2.03;;;5.50;99.90;;;;;;5001784;28;20029;-77
2022/02/19 09:48:29;;;;;;;4.28;2.10;;;5.40;99.90;;;;;;5026642;28;20479;-77
2022/02/19 09:50:57;;;;;;;7.07;2.30;;;5.50;99.90;;;;;;5016954;28;20075;-76
2022/02/19 09:53:23;;;;;;;7.50;2.33;;;5.50;99.90;;;;;;4987529;28;20476;-76
2022/02/19 09:55:49;;;;;;;7.93;2.20;;;5.60;99.90;;;;;;5007132;28;20030;-75
2022/02/19 09:58:15;;;;;;;6.82;2.10;;;5.30;99.90;;;;;;5004045;28;20060;-75
2022/02/19 10:00:46;;;;;;;9.75;2.90;;;5.30;99.90;;;;;;5006941;28;20037;-75
2022/02/19 10:03:22;;;;;;;8.13;2.08;;;5.30;99.90;;;;;;5017477;28;20041;-75
2022/02/19 10:05:51;;;;;;;;;;;5.20;99.90;;;;;;5000214;28;20113;-75
2022/02/19 10:08:17;;;;;;;7.80;2.50;;;5.20;99.90;;;;;;5011981;28;19906;-74
2022/02/19 10:10:54;;;;;;;7.57;2.13;;;5.40;99.90;;;;;;5011856;28;20388;-74
2022/02/19 10:13:35;;;;;;;8.88;2.30;;;5.60;99.90;;;;;;5009709;28;20068;-74
2022/02/19 10:16:05;;;;;;;4.28;2.13;;;5.50;99.90;;;;;;5003399;28;20033;-75
2022/02/19 10:18:44;;;;;;;6.00;1.80;;;5.60;99.90;;;;;;5025055;28;20036;-75
2022/02/19 10:21:24;;;;;;;6.13;2.20;;;5.60;99.90;;;;;;4981159;28;20053;-75
2022/02/19 10:23:53;;;;;;;6.93;2.28;;;5.60;99.90;;;;;;4994333;28;20425;-74
2022/02/19 10:26:21;;;;;;;11.00;2.30;;;5.70;99.90;;;;;;5000477;28;20026;-75
2022/02/19 10:29:00;;;;;;;8.48;2.30;;;5.60;99.90;;;;;;5020681;28;20113;-75
2022/02/19 10:31:27;;;;;;;6.30;2.17;;;5.80;99.90;;;;;;4994788;28;20022;-75
2022/02/19 10:34:13;;;;;;;6.28;2.20;;;6.00;99.90;;;;;;5000806;28;20023;-76
2022/02/19 10:36:46;;;;;;;7.90;1.95;;;6.20;99.90;;;;;;5000862;28;20021;-74
2022/02/19 10:39:12;;;;;;;8.15;1.90;;;6.10;99.90;;;;;;4998890;28;20110;-74
2022/02/19 10:41:39;;;;;;;7.60;2.13;;;6.10;99.90;;;;;;4994024;28;20018;-74
2022/02/19 10:44:27;;;;;;;6.47;2.10;;;6.00;99.90;;;;;;5025564;28;20088;-74
2022/02/19 10:46:55;;;;;;;5.30;2.03;;;6.10;99.90;;;;;;5004165;28;20049;-75
2022/02/19 10:49:23;;;;;;;4.38;1.98;;;6.20;99.90;;;;;;5024876;28;20093;-75
2022/02/19 10:51:49;;;;;;;5.25;2.08;;;6.30;99.90;;;;;;5011414;28;20064;-75
2022/02/19 10:54:22;;;;;;;5.10;1.95;;;6.10;99.90;;;;;;4981104;28;20403;-76
2022/02/19 10:56:48;;;;;;;7.78;2.90;;;6.30;99.90;;;;;;4998790;28;20084;-75
2022/02/19 10:59:17;;;;;;;6.32;2.30;;;6.40;99.90;;;;;;5010860;28;20022;-74
2022/02/19 11:01:49;;;;;;;4.75;1.90;;;6.50;99.90;;;;;;5018635;28;20030;-75
2022/02/19 11:04:17;;;;;;;10.65;2.22;;;6.50;99.90;;;;;;5011564;28;20030;-75
2022/02/19 11:06:43;;;;;;;5.20;2.10;;;6.50;99.90;;;;;;4999049;28;20032;-75
2022/02/19 11:09:10;;;;;;;7.20;1.92;;;6.50;99.90;;;;;;5022211;28;20395;-75
2022/02/19 11:11:37;;;;;;;5.95;1.98;;;6.60;99.90;;;;;;5014901;28;20034;-74
2022/02/19 11:14:07;;;;;;;5.18;1.80;;;6.50;99.90;;;;;;5008177;28;20037;-75
2022/02/19 11:16:34;;;;;;;6.50;1.80;;;6.60;99.90;;;;;;5014448;28;20033;-77
2022/02/19 11:18:59;;;;;;;4.18;1.83;;;6.40;99.90;;;;;;5014961;28;20037;-75
2022/02/19 11:21:27;;;;;;;4.05;1.90;;;6.40;99.90;;;;;;5014975;28;20026;-76
2022/02/19 11:23:54;;;;;;;5.22;1.90;;;6.30;99.90;;;;;;4997427;28;20025;-75
2022/02/19 11:26:23;;;;;;;6.57;1.98;;;6.20;99.90;;;;;;5015093;28;20030;-75
2022/02/19 11:28:51;;;;;;;7.93;1.83;;;5.90;99.90;;;;;;5014932;28;20487;-75
2022/02/19 11:31:18;;;;;;;4.82;1.60;;;5.80;99.90;;;;;;4994357;28;20022;-77
2022/02/19 11:33:49;;;;;;;4.63;1.70;;;5.80;99.90;;;;;;5018045;28;20388;-77
2022/02/19 11:36:15;;;;;;;5.10;1.88;;;6.30;99.90;;;;;;5016285;28;20379;-77
2022/02/19 11:38:50;;;;;;;5.75;2.00;;;6.40;99.90;;;;;;4997090;28;20030;-77
2022/02/19 11:41:37;;;;;;;4.22;1.63;;;6.40;99.90;;;;;;4997106;28;20053;-77
2022/02/19 11:44:23;;;;;;;4.25;1.58;;;6.40;99.90;;;;;;4997409;28;20492;-76
2022/02/19 11:46:50;;;;;;;6.15;2.20;;;6.50;99.90;;;;;;5003812;28;20671;-76
2022/02/19 11:49:20;;;;;;;7.60;2.03;;;6.50;99.90;;;;;;5014486;28;20057;-77
2022/02/19 11:51:47;;;;;;;5.10;1.92;;;6.50;99.90;;;;;;4992307;28;20049;-76
2022/02/19 11:54:12;;;;;;;5.43;1.92;;;7.00;99.90;;;;;;5014486;28;20716;-77
2022/02/19 11:56:40;;;;;;;7.10;1.80;;;7.00;99.90;;;;;;5002692;28;20055;-77
2022/02/19 11:59:11;;;;;;;7.32;2.00;;;7.00;99.90;;;;;;5014362;28;20411;-77
2022/02/19 12:01:38;;;;;;;6.65;1.90;;;6.80;99.90;;;;;;5014229;28;20072;-77
2022/02/19 12:04:13;;;;;;;4.80;1.80;;;6.90;99.90;;;;;;4996663;28;20072;-76
2022/02/19 12:06:43;;;;;;;3.57;1.50;;;7.20;99.90;;;;;;4997047;28;20112;-77
2022/02/19 12:09:19;;;;;;;5.47;1.67;;;7.00;99.90;;;;;;4997140;28;20018;-77
2022/02/19 12:12:05;;;;;;;7.03;2.20;;;7.30;99.90;;;;;;5014350;28;20018;-76
2022/02/19 12:14:57;;;;;;;5.80;1.73;;;7.30;99.90;;;;;;5007936;28;20059;-76
2022/02/19 12:17:41;;;;;;;4.65;1.90;;;7.60;99.90;;;;;;4993599;28;20038;-75
2022/02/19 12:20:09;;;;;;;5.70;1.77;;;7.50;99.90;;;;;;5019019;28;20033;-75
2022/02/19 12:22:37;;;;;;;7.53;1.60;;;7.30;99.90;;;;;;5004256;28;20388;-75
2022/02/19 12:25:10;;;;;;;5.95;1.90;;;7.10;99.90;;;;;;5009437;28;20496;-76
2022/02/19 12:27:38;;;;;;;4.55;1.55;;;7.20;99.90;;;;;;4983670;28;20419;-78
2022/02/19 12:30:17;;;;;;;4.15;1.50;;;7.10;99.90;;;;;;4995984;28;20021;-75
2022/02/19 12:32:44;;;;;;;4.53;1.77;;;7.10;99.90;;;;;;5000674;28;20069;-74
2022/02/19 12:35:10;;;;;;;5.93;1.50;;;7.10;99.90;;;;;;5024405;28;20026;-76
2022/02/19 12:37:36;;;;;;;2.72;1.40;;;7.00;99.90;;;;;;5012297;28;20105;-76
2022/02/19 12:40:02;;;;;;;6.70;1.75;;;7.00;99.90;;;;;;5002183;28;20037;-75
2022/02/19 12:42:30;;;;;;;4.50;1.50;;;6.80;99.90;;;;;;5016987;28;20033;-75
2022/02/19 12:44:59;;;;;;;6.10;1.75;;;6.70;99.90;;;;;;5004440;28;20029;-75
2022/02/19 12:47:24;;;;;;;5.00;1.80;;;6.70;99.90;;;;;;5015666;28;20060;-75
2022/02/19 12:49:50;;;;;;;5.18;1.60;;;6.80;99.90;;;;;;4985205;28;20462;-75
2022/02/19 12:52:15;;;;;;;4.70;1.70;;;6.90;99.90;;;;;;4983423;28;20096;-75
2022/02/19 12:54:45;;;;;;;3.63;1.48;;;6.90;99.90;;;;;;5013253;28;20037;-74
2022/02/19 12:57:16;;;;;;;4.95;2.05;;;6.50;99.90;;;;;;5010565;28;20067;-76
2022/02/19 12:59:43;;;;;;;1.80;1.17;;;6.50;99.90;;;;;;4985306;28;20034;-75
2022/02/19 13:02:12;;;;;;;4.68;2.00;;;6.40;99.90;;;;;;5009102;28;20069;-75